Time;durP1;ratioP1;P1;durP2;ratioP2;P2;SDS_P1;SDS_P2;PMS_P1;PMS_P2;Temp;Humidity;BMP_temperature;BMP_pressure;BME280_temperature;BME280_humidity;BME280_pressure;Samples;Min_cycle;Max_cycle;Signal;HPM_P1;HPM_P2
2023/07/29 00:02:00;;;;;;;13.18;8.95;;;18.70;99.90;;;;;;5048229;28;20400;-81
2023/07/29 00:04:26;;;;;;;11.77;9.50;;;18.50;99.90;;;;;;5020665;28;20426;-81
2023/07/29 00:06:51;;;;;;;12.82;9.50;;;18.30;99.90;;;;;;5057775;28;20418;-81
2023/07/29 00:09:17;;;;;;;14.02;9.63;;;18.50;99.90;;;;;;5028487;28;20888;-81
2023/07/29 00:11:43;;;;;;;11.63;9.50;;;18.60;99.90;;;;;;5055276;28;20922;-81
2023/07/29 00:14:08;;;;;;;12.00;9.63;;;18.70;99.90;;;;;;5055987;28;20467;-81
2023/07/29 00:16:34;;;;;;;11.80;8.85;;;18.50;99.90;;;;;;5063773;28;20408;-82
2023/07/29 00:19:00;;;;;;;13.18;9.63;;;18.50;99.90;;;;;;5072567;28;21788;-82
2023/07/29 00:21:25;;;;;;;12.10;9.67;;;18.50;99.90;;;;;;5046259;28;20424;-81
2023/07/29 00:23:51;;;;;;;14.07;9.60;;;18.90;99.90;;;;;;5037884;28;20403;-81
2023/07/29 00:26:17;;;;;;;11.82;9.20;;;18.60;99.90;;;;;;5011961;28;20430;-81
2023/07/29 00:28:43;;;;;;;13.68;9.65;;;18.50;99.90;;;;;;5052713;28;20793;-81
2023/07/29 00:31:08;;;;;;;12.73;9.20;;;18.60;99.90;;;;;;5038215;28;20423;-81
2023/07/29 00:33:34;;;;;;;12.48;8.93;;;18.40;99.90;;;;;;5054569;28;20403;-81
2023/07/29 00:36:03;;;;;;;10.52;8.63;;;18.50;99.90;;;;;;5063288;28;20417;-80
2023/07/29 00:38:29;;;;;;;11.43;8.80;;;18.70;99.90;;;;;;5029696;28;20419;-81
2023/07/29 00:40:56;;;;;;;11.00;9.40;;;18.70;99.90;;;;;;5054346;28;20901;-81
2023/07/29 00:43:22;;;;;;;12.18;9.02;;;18.60;99.90;;;;;;5065851;28;20422;-81
2023/07/29 00:45:48;;;;;;;12.38;8.95;;;18.60;99.90;;;;;;5055076;28;20408;-81
2023/07/29 00:48:14;;;;;;;11.88;9.38;;;18.50;99.90;;;;;;5050290;28;20442;-81
2023/07/29 00:50:40;;;;;;;11.65;9.02;;;18.60;99.90;;;;;;5073319;28;20801;-81
2023/07/29 00:53:06;;;;;;;13.80;9.18;;;18.60;99.90;;;;;;5047567;28;20940;-80
2023/07/29 00:55:32;;;;;;;11.55;9.05;;;18.60;99.90;;;;;;5037097;28;20415;-81
2023/07/29 00:57:57;;;;;;;11.70;9.30;;;18.60;99.90;;;;;;5024774;28;20423;-81
2023/07/29 01:00:24;;;;;;;12.60;9.52;;;18.30;99.90;;;;;;5080230;28;20504;-80
2023/07/29 01:02:50;;;;;;;12.00;8.85;;;18.20;99.90;;;;;;5041779;28;20418;-80
2023/07/29 01:05:17;;;;;;;11.40;9.15;;;18.50;99.90;;;;;;5062013;28;20527;-80
2023/07/29 01:07:52;;;;;;;11.98;9.07;;;18.50;99.90;;;;;;5025486;28;20453;-81
2023/07/29 01:10:18;;;;;;;12.63;9.45;;;18.30;99.90;;;;;;5069607;28;20426;-80
2023/07/29 01:13:11;;;;;;;13.07;10.10;;;18.30;99.90;;;;;;5057662;28;20398;-80
2023/07/29 01:16:20;;;;;;;12.05;9.45;;;18.20;99.90;;;;;;5073936;28;20902;-81
2023/07/29 01:18:48;;;;;;;13.13;9.45;;;18.30;99.90;;;;;;5018414;28;20414;-81
2023/07/29 01:21:16;;;;;;;13.60;9.75;;;18.40;99.90;;;;;;5056538;28;20425;-81
2023/07/29 01:23:42;;;;;;;13.88;9.57;;;18.40;99.90;;;;;;5042048;28;20424;-81
2023/07/29 01:26:08;;;;;;;12.43;9.73;;;18.20;99.90;;;;;;5072758;28;20782;-81
2023/07/29 01:28:33;;;;;;;12.93;9.68;;;18.20;99.90;;;;;;5063168;28;20430;-81
2023/07/29 01:31:30;;;;;;;12.30;9.37;;;18.00;99.90;;;;;;5057241;28;20475;-81
2023/07/29 01:34:06;;;;;;;13.85;9.88;;;18.10;99.90;;;;;;5040417;28;20469;-81
2023/07/29 01:36:34;;;;;;;13.68;9.80;;;17.90;99.90;;;;;;5053374;28;20771;-81
2023/07/29 01:39:01;;;;;;;14.68;10.07;;;17.90;99.90;;;;;;5055023;28;20424;-81
2023/07/29 01:41:28;;;;;;;12.43;9.55;;;17.80;99.90;;;;;;5047789;28;20481;-81
2023/07/29 01:43:55;;;;;;;14.50;10.02;;;17.90;99.90;;;;;;5050441;28;20440;-81
2023/07/29 01:46:21;;;;;;;13.13;9.48;;;17.80;99.90;;;;;;5038322;28;20411;-81
2023/07/29 01:48:47;;;;;;;13.63;9.70;;;18.00;99.90;;;;;;5025890;28;20423;-81
2023/07/29 01:51:13;;;;;;;14.53;9.63;;;17.70;99.90;;;;;;5065372;28;20429;-81
2023/07/29 01:53:38;;;;;;;15.75;10.20;;;18.10;99.90;;;;;;5070167;28;20417;-81
2023/07/29 01:56:04;;;;;;;12.43;9.53;;;17.90;99.90;;;;;;5056161;28;20413;-81
2023/07/29 01:58:30;;;;;;;14.53;10.00;;;17.80;99.90;;;;;;5071392;28;20414;-81
2023/07/29 02:00:56;;;;;;;12.35;9.70;;;17.90;99.90;;;;;;5066165;28;21015;-81
2023/07/29 02:03:21;;;;;;;16.13;10.43;;;17.90;99.90;;;;;;5056029;28;20415;-81
2023/07/29 02:05:47;;;;;;;13.07;10.30;;;18.00;99.90;;;;;;5060750;28;20439;-81
2023/07/29 02:08:13;;;;;;;14.47;10.20;;;17.80;99.90;;;;;;5052407;28;20424;-81
2023/07/29 02:10:39;;;;;;;16.20;10.27;;;17.90;99.90;;;;;;5071910;28;20418;-82
2023/07/29 02:13:05;;;;;;;14.27;9.80;;;17.90;99.90;;;;;;5055466;28;20900;-82
2023/07/29 02:15:31;;;;;;;14.50;9.97;;;17.70;99.90;;;;;;5072011;28;20653;-81
2023/07/29 02:17:56;;;;;;;13.63;10.60;;;17.70;99.90;;;;;;5061271;28;20459;-81
2023/07/29 02:20:22;;;;;;;13.93;9.70;;;17.90;99.90;;;;;;5059484;28;20460;-82
2023/07/29 02:22:48;;;;;;;13.73;9.93;;;17.60;99.90;;;;;;5055005;28;20429;-82
2023/07/29 02:25:14;;;;;;;12.98;10.15;;;17.60;99.90;;;;;;5048520;28;20981;-81
2023/07/29 02:27:40;;;;;;;13.18;9.93;;;17.70;99.90;;;;;;5066030;28;20506;-81
2023/07/29 02:30:06;;;;;;;12.20;10.02;;;17.60;99.90;;;;;;5053116;28;20424;-81
2023/07/29 02:32:32;;;;;;;13.30;9.52;;;17.60;99.90;;;;;;5053156;28;20419;-82
2023/07/29 02:34:58;;;;;;;15.57;9.85;;;17.60;99.90;;;;;;5055832;28;20411;-82
2023/07/29 02:37:23;;;;;;;14.75;9.85;;;17.60;99.90;;;;;;5058622;28;20420;-82
2023/07/29 02:39:49;;;;;;;11.87;9.30;;;17.30;99.90;;;;;;5051623;28;20420;-82
2023/07/29 02:42:15;;;;;;;14.57;9.83;;;17.40;99.90;;;;;;5056588;28;20746;-81
2023/07/29 02:44:41;;;;;;;12.77;9.18;;;17.60;99.90;;;;;;5054831;28;20479;-82
2023/07/29 02:47:06;;;;;;;14.25;8.93;;;17.20;99.90;;;;;;5075289;28;20949;-81
2023/07/29 02:49:32;;;;;;;12.68;9.25;;;17.40;99.90;;;;;;5057022;28;20453;-81
2023/07/29 02:51:58;;;;;;;12.68;8.98;;;17.60;99.90;;;;;;5055222;28;20457;-81
2023/07/29 02:54:23;;;;;;;12.57;9.30;;;17.60;99.90;;;;;;5075964;28;20433;-81
2023/07/29 02:56:50;;;;;;;17.27;10.00;;;17.40;99.90;;;;;;5052928;28;20453;-81
2023/07/29 02:59:16;;;;;;;12.48;9.13;;;17.30;99.90;;;;;;5076842;28;20441;-81
2023/07/29 03:01:42;;;;;;;12.88;9.05;;;17.10;99.90;;;;;;5076726;28;20440;-82
2023/07/29 03:04:08;;;;;;;13.63;9.13;;;17.30;99.90;;;;;;5069862;28;20414;-81
2023/07/29 03:06:34;;;;;;;13.57;9.10;;;17.30;99.90;;;;;;5058106;28;20417;-82
2023/07/29 03:08:59;;;;;;;11.63;8.27;;;17.30;99.90;;;;;;5025322;28;20423;-81
2023/07/29 03:11:25;;;;;;;11.67;8.70;;;17.30;99.90;;;;;;5042229;28;20426;-82
2023/07/29 03:13:50;;;;;;;15.93;8.80;;;17.20;99.90;;;;;;5043738;28;20401;-82
2023/07/29 03:16:17;;;;;;;14.88;8.48;;;17.20;99.90;;;;;;5043071;28;20962;-81
2023/07/29 03:18:44;;;;;;;12.68;8.75;;;17.20;99.90;;;;;;5040856;28;21267;-82
2023/07/29 03:21:10;;;;;;;14.50;8.90;;;17.20;99.90;;;;;;5088117;28;20856;-82
2023/07/29 03:23:37;;;;;;;12.38;8.60;;;16.90;99.90;;;;;;5089648;28;20407;-82
2023/07/29 03:26:09;;;;;;;12.68;8.50;;;16.90;99.90;;;;;;5023098;28;20451;-81
2023/07/29 03:28:40;;;;;;;10.48;7.78;;;17.10;99.90;;;;;;5070027;28;20498;-82
2023/07/29 03:31:06;;;;;;;11.27;7.97;;;17.00;99.90;;;;;;5058396;28;20425;-81
2023/07/29 03:33:31;;;;;;;12.57;8.57;;;17.00;99.90;;;;;;5053118;28;20414;-81
2023/07/29 03:35:57;;;;;;;12.97;7.80;;;17.00;99.90;;;;;;5074626;28;20410;-81
2023/07/29 03:38:23;;;;;;;11.88;7.50;;;17.10;99.90;;;;;;5072035;28;20506;-81
2023/07/29 03:40:48;;;;;;;13.23;8.05;;;17.10;99.90;;;;;;5080253;28;20415;-81
2023/07/29 03:43:14;;;;;;;10.77;7.80;;;16.90;99.90;;;;;;5056652;28;20425;-81
2023/07/29 03:45:40;;;;;;;11.70;8.00;;;16.90;99.90;;;;;;5062830;28;20431;-81
2023/07/29 03:48:06;;;;;;;11.70;8.23;;;16.90;99.90;;;;;;5049109;28;20534;-81
2023/07/29 03:50:35;;;;;;;10.93;7.37;;;16.90;99.90;;;;;;5049907;28;21174;-81
2023/07/29 03:53:02;;;;;;;11.43;7.90;;;17.00;99.90;;;;;;5092532;28;20409;-81
2023/07/29 03:55:29;;;;;;;12.35;7.60;;;16.90;99.90;;;;;;5088278;28;20415;-81
2023/07/29 03:57:59;;;;;;;13.07;7.63;;;16.90;99.90;;;;;;5046833;28;20425;-81
2023/07/29 04:00:25;;;;;;;11.37;7.50;;;16.90;99.90;;;;;;5057021;28;20450;-81
2023/07/29 04:02:51;;;;;;;13.60;8.03;;;16.80;99.90;;;;;;5022529;28;20767;-82
2023/07/29 04:05:17;;;;;;;11.87;7.60;;;16.80;99.90;;;;;;5024405;28;20430;-80
2023/07/29 04:07:43;;;;;;;10.85;6.93;;;16.90;99.90;;;;;;5056943;28;20812;-81
2023/07/29 04:10:09;;;;;;;12.88;6.82;;;17.00;99.90;;;;;;5055753;28;20418;-81
2023/07/29 04:12:34;;;;;;;11.68;7.10;;;16.60;99.90;;;;;;5042126;28;20399;-81
2023/07/29 04:15:00;;;;;;;10.73;6.47;;;16.80;99.90;;;;;;5074152;28;20410;-81
2023/07/29 04:17:26;;;;;;;9.40;6.82;;;17.00;99.90;;;;;;5071704;28;20411;-81
2023/07/29 04:19:52;;;;;;;11.53;6.80;;;16.80;99.90;;;;;;5056207;28;20404;-81
2023/07/29 04:22:17;;;;;;;10.20;6.47;;;16.70;99.90;;;;;;5046305;28;20981;-81
2023/07/29 04:24:43;;;;;;;9.75;6.35;;;17.10;99.90;;;;;;5058460;28;20987;-81
2023/07/29 04:27:09;;;;;;;10.57;6.30;;;16.90;99.90;;;;;;5059241;28;20430;-81
2023/07/29 04:29:35;;;;;;;11.10;6.27;;;17.00;99.90;;;;;;5073370;28;20417;-80
2023/07/29 04:32:02;;;;;;;10.20;6.50;;;16.90;99.90;;;;;;5057954;28;20428;-81
2023/07/29 04:34:28;;;;;;;10.68;6.50;;;16.70;99.90;;;;;;5055750;28;20915;-81
2023/07/29 04:36:54;;;;;;;11.48;6.45;;;17.10;99.90;;;;;;5061764;28;20414;-81
2023/07/29 04:39:20;;;;;;;14.18;6.50;;;17.00;99.90;;;;;;5057236;28;20398;-80
2023/07/29 04:41:46;;;;;;;10.15;5.82;;;16.90;99.90;;;;;;5039514;28;20426;-81
2023/07/29 04:44:11;;;;;;;12.82;6.55;;;17.00;99.90;;;;;;5039119;28;20434;-81
2023/07/29 04:46:38;;;;;;;9.88;5.50;;;17.00;99.90;;;;;;5038327;28;20760;-81
2023/07/29 04:49:04;;;;;;;9.45;5.55;;;17.00;99.90;;;;;;5054148;28;20500;-81
2023/07/29 04:51:34;;;;;;;10.57;5.40;;;17.10;99.90;;;;;;5054302;28;20925;-81
2023/07/29 04:53:59;;;;;;;10.68;5.68;;;16.90;99.90;;;;;;5060650;28;20441;-81
2023/07/29 04:56:25;;;;;;;9.70;5.60;;;17.10;99.90;;;;;;5035922;28;20443;-82
2023/07/29 04:58:52;;;;;;;10.75;5.35;;;17.00;99.90;;;;;;5047323;28;20421;-81
2023/07/29 05:01:18;;;;;;;6.97;4.90;;;17.10;99.90;;;;;;5072246;28;20421;-80
2023/07/29 05:03:43;;;;;;;10.87;4.77;;;17.10;99.90;;;;;;5052037;28;20996;-80
2023/07/29 05:06:10;;;;;;;8.73;4.68;;;17.90;99.90;;;;;;5021557;28;20400;-82
2023/07/29 05:08:36;;;;;;;8.68;4.53;;;17.20;99.90;;;;;;5068501;28;20421;-81
2023/07/29 05:11:02;;;;;;;8.63;4.35;;;17.20;99.90;;;;;;5045557;28;20552;-81
2023/07/29 05:13:28;;;;;;;6.03;3.93;;;17.20;99.90;;;;;;5044465;28;20419;-81
2023/07/29 05:15:54;;;;;;;7.60;4.25;;;17.40;99.90;;;;;;5037310;28;20828;-80
2023/07/29 05:18:20;;;;;;;6.55;4.22;;;17.30;99.90;;;;;;5041066;28;21068;-81
2023/07/29 05:20:47;;;;;;;7.93;4.05;;;17.40;99.90;;;;;;5053933;28;20486;-81
2023/07/29 05:23:12;;;;;;;7.10;4.00;;;17.50;99.90;;;;;;5073508;28;20443;-82
2023/07/29 05:25:38;;;;;;;6.55;4.00;;;17.20;99.90;;;;;;5067409;28;20426;-81
2023/07/29 05:28:04;;;;;;;6.88;4.25;;;17.20;99.90;;;;;;5071877;28;20932;-81
2023/07/29 05:30:31;;;;;;;7.68;4.32;;;17.40;99.90;;;;;;5035811;28;20424;-81
2023/07/29 05:32:57;;;;;;;9.48;4.20;;;17.50;99.90;;;;;;5052240;28;20426;-81
2023/07/29 05:35:24;;;;;;;8.05;3.92;;;17.10;99.90;;;;;;5067002;28;20773;-81
2023/07/29 05:37:49;;;;;;;5.88;4.10;;;17.40;99.90;;;;;;5055783;28;20425;-81
2023/07/29 05:40:15;;;;;;;8.30;4.30;;;17.40;99.90;;;;;;5069420;28;20418;-81
2023/07/29 05:42:41;;;;;;;9.47;4.10;;;17.40;99.90;;;;;;5056183;28;20897;-81
2023/07/29 05:45:07;;;;;;;7.75;3.60;;;17.40;99.90;;;;;;5036424;28;20479;-82
2023/07/29 05:47:33;;;;;;;6.55;3.50;;;17.50;99.90;;;;;;5046650;28;20428;-81
2023/07/29 05:50:01;;;;;;;6.60;3.40;;;17.10;99.90;;;;;;5046936;28;20425;-81
2023/07/29 05:52:27;;;;;;;5.90;3.58;;;17.30;99.90;;;;;;5071768;28;20409;-81
2023/07/29 05:54:53;;;;;;;6.00;3.70;;;17.30;99.90;;;;;;5065052;28;20414;-81
2023/07/29 05:57:18;;;;;;;6.57;3.77;;;17.30;99.90;;;;;;5039471;28;20472;-82
2023/07/29 05:59:44;;;;;;;6.63;3.60;;;17.20;99.90;;;;;;5069735;28;20432;-82
2023/07/29 06:02:10;;;;;;;5.97;3.35;;;17.40;99.90;;;;;;5053641;28;20423;-81
2023/07/29 06:04:35;;;;;;;7.27;3.47;;;17.40;99.90;;;;;;5049810;28;20419;-81
2023/07/29 06:07:01;;;;;;;6.73;3.60;;;17.60;99.90;;;;;;5056539;28;20414;-81
2023/07/29 06:09:27;;;;;;;6.35;3.30;;;17.50;99.90;;;;;;5066688;28;20508;-81
2023/07/29 06:11:52;;;;;;;8.48;3.88;;;17.60;99.90;;;;;;5036259;28;20421;-81
2023/07/29 06:14:18;;;;;;;5.63;3.27;;;17.50;99.90;;;;;;5043747;28;20451;-81
2023/07/29 06:16:44;;;;;;;9.00;3.50;;;17.60;99.90;;;;;;5064333;28;20418;-80
2023/07/29 06:19:09;;;;;;;8.18;3.20;;;17.80;99.90;;;;;;5058832;28;20457;-82
2023/07/29 06:21:35;;;;;;;7.90;3.60;;;17.70;99.90;;;;;;5032062;28;20927;-82
2023/07/29 06:24:01;;;;;;;6.65;3.20;;;17.50;99.90;;;;;;5041416;28;20423;-81
2023/07/29 06:26:27;;;;;;;6.68;3.20;;;17.80;99.90;;;;;;5038651;28;20438;-81
2023/07/29 06:28:53;;;;;;;7.25;3.53;;;18.70;99.90;;;;;;5046455;28;20410;-81
2023/07/29 06:31:20;;;;;;;9.55;3.58;;;18.20;99.90;;;;;;5045875;28;20433;-81
2023/07/29 06:33:46;;;;;;;6.53;3.50;;;18.20;99.90;;;;;;5070234;28;20413;-81
2023/07/29 06:36:12;;;;;;;7.80;3.27;;;18.30;99.90;;;;;;5059590;28;20412;-82
2023/07/29 06:38:38;;;;;;;6.80;3.17;;;18.40;99.90;;;;;;5075124;28;20406;-82
2023/07/29 06:41:05;;;;;;;7.75;3.60;;;18.30;99.90;;;;;;5065585;28;20413;-81
2023/07/29 06:43:33;;;;;;;7.47;3.90;;;18.30;99.90;;;;;;5046659;28;20429;-80
2023/07/29 06:45:59;;;;;;;6.10;3.20;;;18.60;99.90;;;;;;5046847;28;20420;-80
2023/07/29 06:48:24;;;;;;;7.03;3.67;;;18.50;99.90;;;;;;5057456;28;20426;-81
2023/07/29 06:50:50;;;;;;;8.02;3.40;;;18.40;99.90;;;;;;5021515;28;20431;-81
2023/07/29 06:53:19;;;;;;;9.43;4.05;;;18.80;99.90;;;;;;5072312;28;20450;-83
2023/07/29 06:55:44;;;;;;;8.03;3.80;;;19.30;99.90;;;;;;5054105;28;20424;-84
2023/07/29 06:58:10;;;;;;;7.30;3.40;;;19.00;99.90;;;;;;5058952;28;20504;-82
2023/07/29 07:00:36;;;;;;;8.98;4.00;;;19.30;99.90;;;;;;5041585;28;20498;-82
2023/07/29 07:03:02;;;;;;;10.52;3.97;;;19.50;99.90;;;;;;5066950;28;20825;-82
2023/07/29 07:05:27;;;;;;;7.97;3.65;;;19.20;99.90;;;;;;5058230;28;20407;-81
2023/07/29 07:07:53;;;;;;;9.27;3.87;;;19.40;99.90;;;;;;5065441;28;20414;-81
2023/07/29 07:10:19;;;;;;;7.40;4.10;;;19.20;99.90;;;;;;5075270;28;20458;-82
2023/07/29 07:12:45;;;;;;;9.68;4.35;;;19.30;99.90;;;;;;5050420;28;20423;-82
2023/07/29 07:15:10;;;;;;;8.95;4.40;;;19.40;99.90;;;;;;5061614;28;20425;-81
2023/07/29 07:17:36;;;;;;;8.80;4.18;;;19.40;99.90;;;;;;5035112;28;20411;-81
2023/07/29 07:20:03;;;;;;;8.87;4.13;;;19.40;99.90;;;;;;5038060;28;20417;-80
2023/07/29 07:22:29;;;;;;;11.40;5.00;;;19.20;99.90;;;;;;5059055;28;20413;-80
2023/07/29 07:24:55;;;;;;;6.88;4.43;;;19.20;99.90;;;;;;5070856;28;20766;-80
2023/07/29 07:27:20;;;;;;;8.00;4.22;;;19.20;99.90;;;;;;5073528;28;20499;-80
2023/07/29 07:29:46;;;;;;;9.15;4.47;;;19.40;99.90;;;;;;5054526;28;20416;-79
2023/07/29 07:32:12;;;;;;;7.63;4.37;;;19.30;99.90;;;;;;5047515;28;20418;-81
2023/07/29 07:34:37;;;;;;;9.97;4.20;;;19.50;99.90;;;;;;5023095;28;20499;-82
2023/07/29 07:37:04;;;;;;;9.23;4.15;;;19.60;99.90;;;;;;5024309;28;20783;-82
2023/07/29 07:39:32;;;;;;;10.35;3.90;;;19.60;99.90;;;;;;5065649;28;20469;-82
2023/07/29 07:41:58;;;;;;;10.82;4.40;;;19.70;99.90;;;;;;5063413;28;20488;-81
2023/07/29 07:44:26;;;;;;;8.50;4.13;;;19.60;99.90;;;;;;5090919;28;20507;-81
2023/07/29 07:46:52;;;;;;;7.40;4.00;;;20.00;99.90;;;;;;5046199;28;20424;-81
2023/07/29 07:49:18;;;;;;;10.13;3.83;;;20.00;99.90;;;;;;5068906;28;20451;-81
2023/07/29 07:51:44;;;;;;;8.30;3.90;;;20.00;99.90;;;;;;5050905;28;20455;-80
2023/07/29 07:54:10;;;;;;;9.10;4.00;;;20.00;99.90;;;;;;5073788;28;20413;-80
2023/07/29 07:56:35;;;;;;;8.23;3.90;;;20.20;99.90;;;;;;5053616;28;20912;-81
2023/07/29 07:59:01;;;;;;;8.70;4.50;;;20.30;99.90;;;;;;5075790;28;20804;-81
2023/07/29 08:01:27;;;;;;;9.32;3.65;;;20.30;99.90;;;;;;5067176;28;20422;-81
2023/07/29 08:03:52;;;;;;;7.63;3.60;;;20.50;99.90;;;;;;5042142;28;20875;-81
2023/07/29 08:06:18;;;;;;;7.17;3.80;;;20.30;99.90;;;;;;5051738;28;20509;-80
2023/07/29 08:08:44;;;;;;;8.20;3.42;;;20.50;99.90;;;;;;5051856;28;20421;-81
2023/07/29 08:11:10;;;;;;;8.55;3.70;;;20.60;99.90;;;;;;5054688;28;20427;-80
2023/07/29 08:13:35;;;;;;;7.93;3.70;;;20.70;99.90;;;;;;5049730;28;20445;-81
2023/07/29 08:16:01;;;;;;;7.57;3.30;;;20.40;99.90;;;;;;5054766;28;21167;-80
2023/07/29 08:18:27;;;;;;;8.82;3.47;;;20.30;99.90;;;;;;5043237;28;20495;-81
2023/07/29 08:21:02;;;;;;;7.33;3.57;;;20.40;99.90;;;;;;5056193;28;20416;-81
2023/07/29 08:23:29;;;;;;;7.90;3.45;;;20.60;99.90;;;;;;5065646;28;20426;-81
2023/07/29 08:26:01;;;;;;;12.20;3.65;;;21.20;99.90;;;;;;5043365;28;20418;-78
2023/07/29 08:28:34;;;;;;;6.07;3.20;;;21.10;99.90;;;;;;5058093;28;20798;-80
2023/07/29 08:31:00;;;;;;;5.43;3.05;;;21.30;99.90;;;;;;5065836;28;20428;-80
2023/07/29 08:33:26;;;;;;;7.95;3.42;;;21.00;99.90;;;;;;5032471;28;20420;-80
2023/07/29 08:35:52;;;;;;;7.07;3.53;;;21.00;99.90;;;;;;5056197;28;20515;-80
2023/07/29 08:38:18;;;;;;;5.60;3.03;;;21.20;99.90;;;;;;5074053;28;20410;-81
2023/07/29 08:41:13;;;;;;;6.88;2.97;;;21.10;99.90;;;;;;5071847;28;20453;-81
2023/07/29 08:43:46;;;;;;;6.07;2.90;;;20.80;99.90;;;;;;5071650;28;20421;-81
2023/07/29 08:46:12;;;;;;;6.43;2.80;;;21.20;99.90;;;;;;5071878;28;20425;-81
2023/07/29 08:48:43;;;;;;;6.85;2.58;;;21.50;99.90;;;;;;5055607;28;20457;-81
2023/07/29 08:51:10;;;;;;;10.20;2.87;;;21.60;99.90;;;;;;5050246;28;20431;-80
2023/07/29 08:53:37;;;;;;;5.85;2.58;;;21.80;99.90;;;;;;5046166;28;20422;-81
2023/07/29 08:56:03;;;;;;;8.43;2.50;;;21.90;99.90;;;;;;5074914;28;20483;-81
2023/07/29 08:58:29;;;;;;;6.10;2.13;;;22.00;99.90;;;;;;5051620;28;20515;-80
2023/07/29 09:00:54;;;;;;;4.45;2.10;;;22.20;99.90;;;;;;5065940;28;20467;-80
2023/07/29 09:03:21;;;;;;;5.20;2.07;;;22.30;99.90;;;;;;5061609;28;20508;-81
2023/07/29 09:05:47;;;;;;;7.85;2.45;;;22.20;99.90;;;;;;5059321;28;20424;-80
2023/07/29 09:08:14;;;;;;;5.78;2.30;;;22.40;99.90;;;;;;5022162;28;20492;-79
2023/07/29 09:10:40;;;;;;;5.70;2.23;;;22.40;99.90;;;;;;5054530;28;20414;-79
2023/07/29 09:13:06;;;;;;;5.73;2.60;;;22.10;99.90;;;;;;5048602;28;20793;-79
2023/07/29 09:15:33;;;;;;;4.93;2.27;;;21.90;99.90;;;;;;5047915;28;20478;-79
2023/07/29 09:18:08;;;;;;;5.05;2.20;;;22.10;99.90;;;;;;5068516;28;20432;-78
2023/07/29 09:20:34;;;;;;;5.37;2.17;;;22.20;99.90;;;;;;5052853;28;20437;-80
2023/07/29 09:23:01;;;;;;;5.00;2.10;;;22.10;99.90;;;;;;5053213;28;20444;-80
2023/07/29 09:25:28;;;;;;;5.10;2.30;;;22.40;99.90;;;;;;5050290;28;20513;-79
2023/07/29 09:28:02;;;;;;;5.18;2.33;;;22.30;99.90;;;;;;5052987;28;20418;-80
2023/07/29 09:30:28;;;;;;;6.22;2.30;;;22.30;99.90;;;;;;5057967;28;20426;-80
2023/07/29 09:32:58;;;;;;;7.80;2.80;;;22.40;99.90;;;;;;5073521;28;20417;-80
2023/07/29 09:35:34;;;;;;;4.53;2.20;;;22.60;99.90;;;;;;5032377;28;20453;-80
2023/07/29 09:38:01;;;;;;;5.82;2.08;;;22.60;99.90;;;;;;5049974;28;20475;-79
2023/07/29 09:40:27;;;;;;;7.05;1.80;;;22.50;99.90;;;;;;5055276;28;20432;-80
2023/07/29 09:42:55;;;;;;;5.18;2.00;;;22.70;99.90;;;;;;5036082;28;20525;-80
2023/07/29 09:45:22;;;;;;;6.43;2.42;;;22.80;99.90;;;;;;5051862;28;21011;-80
2023/07/29 09:47:49;;;;;;;5.82;1.92;;;22.90;99.90;;;;;;5048510;28;20969;-77
2023/07/29 09:50:15;;;;;;;5.03;1.90;;;24.80;99.90;;;;;;5053005;28;20960;-82
2023/07/29 09:52:41;;;;;;;6.32;2.10;;;22.70;99.90;;;;;;5073413;28;20418;-82
2023/07/29 09:55:09;;;;;;;7.60;2.22;;;22.70;99.90;;;;;;5063866;28;20417;-82
2023/07/29 09:57:35;;;;;;;3.92;2.00;;;22.60;99.90;;;;;;5053873;28;20414;-83
2023/07/29 10:00:05;;;;;;;5.05;2.03;;;22.60;99.90;;;;;;5048864;28;20409;-82
2023/07/29 10:02:31;;;;;;;6.68;2.78;;;22.90;99.90;;;;;;5050515;28;20472;-82
2023/07/29 10:04:58;;;;;;;7.78;2.78;;;22.70;99.90;;;;;;5045534;28;20724;-82
2023/07/29 10:07:24;;;;;;;5.85;2.50;;;22.70;99.90;;;;;;5052198;28;20455;-82
2023/07/29 10:09:52;;;;;;;6.55;2.30;;;22.70;99.90;;;;;;5053219;28;20883;-82
2023/07/29 10:12:19;;;;;;;4.90;2.08;;;22.80;99.90;;;;;;5042105;28;20430;-82
2023/07/29 10:14:48;;;;;;;5.28;2.00;;;22.80;99.90;;;;;;5038138;28;20442;-82
2023/07/29 10:17:15;;;;;;;7.90;2.55;;;22.80;99.90;;;;;;5021453;28;20400;-80
2023/07/29 10:19:43;;;;;;;4.93;1.70;;;22.80;99.90;;;;;;5045423;28;20431;-80
2023/07/29 10:22:14;;;;;;;4.35;1.95;;;22.80;99.90;;;;;;5054067;28;20719;-82
2023/07/29 10:24:44;;;;;;;5.10;1.95;;;23.00;99.90;;;;;;5044567;28;20994;-80
2023/07/29 10:27:14;;;;;;;4.75;1.95;;;23.00;99.90;;;;;;5058177;28;20426;-81
2023/07/29 10:29:45;;;;;;;5.50;2.40;;;23.10;99.90;;;;;;5071139;28;20423;-82
2023/07/29 10:32:12;;;;;;;6.05;2.40;;;25.00;99.90;;;;;;5052449;28;20423;-81
2023/07/29 10:34:41;;;;;;;6.70;2.28;;;23.20;99.90;;;;;;5049284;28;20396;-81
2023/07/29 10:37:08;;;;;;;5.55;2.28;;;23.10;99.90;;;;;;5052860;28;20874;-81
2023/07/29 10:39:41;;;;;;;7.20;2.05;;;23.20;99.90;;;;;;5047568;28;20420;-81
2023/07/29 10:42:07;;;;;;;6.60;2.17;;;23.00;99.90;;;;;;5083351;28;20405;-82
2023/07/29 10:44:49;;;;;;;6.15;2.05;;;23.10;99.90;;;;;;5061469;28;20417;-82
2023/07/29 10:47:29;;;;;;;5.18;1.85;;;22.30;99.90;;;;;;5055025;28;20417;-81
2023/07/29 10:49:56;;;;;;;3.92;1.50;;;22.30;99.90;;;;;;5042485;28;20487;-81
2023/07/29 10:52:33;;;;;;;3.90;1.60;;;21.80;99.90;;;;;;5073474;28;20960;-81
2023/07/29 10:55:00;;;;;;;6.13;1.80;;;21.30;99.90;;;;;;5049564;28;20414;-82
2023/07/29 10:57:37;;;;;;;4.03;1.55;;;21.70;99.90;;;;;;5039136;28;20490;-82
2023/07/29 11:00:05;;;;;;;4.75;1.77;;;21.80;99.90;;;;;;5067099;28;20420;-81
2023/07/29 11:02:38;;;;;;;4.43;1.85;;;21.90;99.90;;;;;;5056577;28;20467;-81
2023/07/29 11:05:16;;;;;;;4.03;2.10;;;21.90;99.90;;;;;;5044056;28;20410;-82
2023/07/29 11:07:48;;;;;;;4.43;1.90;;;21.90;99.90;;;;;;5043351;28;20420;-81
2023/07/29 11:10:15;;;;;;;4.82;1.80;;;21.90;99.90;;;;;;5024987;28;20724;-82
2023/07/29 11:12:52;;;;;;;4.30;1.90;;;21.60;99.90;;;;;;5054273;28;20419;-82
2023/07/29 11:15:31;;;;;;;5.43;2.38;;;21.50;99.90;;;;;;5046439;28;20410;-83
2023/07/29 11:18:03;;;;;;;5.25;1.98;;;22.10;99.90;;;;;;5041005;28;20899;-82
2023/07/29 11:20:33;;;;;;;5.93;2.23;;;23.60;99.90;;;;;;5039414;28;20418;-82
2023/07/29 11:23:01;;;;;;;4.63;2.30;;;22.20;99.90;;;;;;5046983;28;20445;-81
2023/07/29 11:25:29;;;;;;;4.97;1.95;;;23.10;99.90;;;;;;5057284;28;20459;-82
2023/07/29 11:27:56;;;;;;;7.18;2.42;;;22.50;99.90;;;;;;5077088;28;20422;-82
2023/07/29 11:30:23;;;;;;;5.30;2.17;;;22.80;99.90;;;;;;5076400;28;20938;-82
2023/07/29 11:32:49;;;;;;;5.33;2.30;;;22.40;99.90;;;;;;5043342;28;20419;-81
2023/07/29 11:35:18;;;;;;;6.65;2.30;;;23.30;99.90;;;;;;5053867;28;20425;-82
2023/07/29 11:37:58;;;;;;;5.03;2.30;;;23.00;99.90;;;;;;5061074;28;20408;-81
2023/07/29 11:40:24;;;;;;;5.32;2.25;;;24.10;99.90;;;;;;5056971;28;20727;-80
2023/07/29 11:42:51;;;;;;;7.40;2.15;;;20.60;99.90;;;;;;5057364;28;20909;-81
2023/07/29 11:45:21;;;;;;;5.70;2.58;;;22.70;99.90;;;;;;5061836;28;20430;-81
2023/07/29 11:47:47;;;;;;;5.15;2.42;;;22.70;99.90;;;;;;5049213;28;20444;-82
2023/07/29 11:50:24;;;;;;;5.22;2.20;;;22.50;99.90;;;;;;5065167;28;20750;-81
2023/07/29 11:52:52;;;;;;;5.75;2.47;;;22.60;99.90;;;;;;5052430;28;20509;-81
2023/07/29 11:55:19;;;;;;;5.85;2.38;;;22.60;99.90;;;;;;5056653;28;20464;-81
2023/07/29 11:57:54;;;;;;;6.93;2.80;;;23.00;99.90;;;;;;5026914;28;20442;-81
2023/07/29 12:00:22;;;;;;;6.00;2.58;;;22.70;99.90;;;;;;5050583;28;20406;-81
2023/07/29 12:02:49;;;;;;;8.50;2.60;;;21.00;99.90;;;;;;5036197;28;20419;-81
2023/07/29 12:05:15;;;;;;;4.90;2.40;;;22.70;99.90;;;;;;5053849;28;20448;-80
2023/07/29 12:07:43;;;;;;;5.25;2.75;;;22.50;99.90;;;;;;5069769;28;20973;-80
2023/07/29 12:10:10;;;;;;;7.57;2.55;;;22.50;99.90;;;;;;5046058;28;20830;-80
2023/07/29 12:12:47;;;;;;;6.10;2.42;;;24.90;99.90;;;;;;5085883;28;20409;-81
2023/07/29 12:15:13;;;;;;;6.07;2.50;;;23.70;99.90;;;;;;5073136;28;20427;-81
2023/07/29 12:17:42;;;;;;;6.38;2.90;;;23.20;99.90;;;;;;5056579;28;20405;-80
2023/07/29 12:20:13;;;;;;;6.03;2.35;;;23.50;99.90;;;;;;5059749;28;20467;-79
2023/07/29 12:22:38;;;;;;;5.63;2.67;;;23.80;99.90;;;;;;5072620;28;20423;-80
2023/07/29 12:25:04;;;;;;;5.03;2.35;;;23.70;99.90;;;;;;5047471;28;20426;-79
2023/07/29 12:27:33;;;;;;;5.40;2.42;;;23.80;99.90;;;;;;5071520;28;20442;-79
2023/07/29 12:30:03;;;;;;;7.43;2.55;;;23.90;99.90;;;;;;5053759;28;20446;-80
2023/07/29 12:32:30;;;;;;;5.00;2.35;;;24.50;99.90;;;;;;5075304;28;20414;-80
2023/07/29 12:34:55;;;;;;;6.18;2.67;;;24.20;99.90;;;;;;5066603;28;20427;-81
2023/07/29 12:37:32;;;;;;;5.47;2.40;;;24.50;99.90;;;;;;5025657;28;20413;-80
2023/07/29 12:39:58;;;;;;;4.70;2.40;;;24.10;99.90;;;;;;5075951;28;20886;-80
2023/07/29 12:42:24;;;;;;;5.43;2.50;;;22.50;99.90;;;;;;5059180;28;20413;-80
2023/07/29 12:44:50;;;;;;;5.22;2.10;;;23.40;99.90;;;;;;5068999;28;20420;-80